createdAt,value
2023-05-25T00:02:35.856Z,24.95
2023-05-25T00:06:58.000Z,23.60
2023-05-25T00:11:20.288Z,29.10
2023-05-25T00:15:42.866Z,30.30
2023-05-25T00:20:09.656Z,25.35
2023-05-25T00:24:31.915Z,25.85
2023-05-25T00:28:54.314Z,26.52
2023-05-25T00:33:16.978Z,28.92
2023-05-25T00:37:38.812Z,33.45
2023-05-25T00:42:03.394Z,28.98
2023-05-25T00:46:27.026Z,29.20
2023-05-25T00:50:50.883Z,27.58
2023-05-25T00:55:16.842Z,37.45
2023-05-25T00:59:44.981Z,29.42
2023-05-25T01:04:11.426Z,35.88
2023-05-25T01:08:36.188Z,32.92
2023-05-25T01:13:02.232Z,27.95
2023-05-25T01:17:25.647Z,28.23
2023-05-25T01:22:22.448Z,30.75
2023-05-25T01:27:11.621Z,30.75
2023-05-25T01:31:46.656Z,27.15
2023-05-25T01:36:16.639Z,37.17
2023-05-25T01:40:47.703Z,32.92
2023-05-25T01:45:15.021Z,23.73
2023-05-25T01:50:28.575Z,33.65
2023-05-25T01:55:37.075Z,27.30
2023-05-25T02:00:04.916Z,36.80
2023-05-25T02:04:40.252Z,30.80
2023-05-25T02:09:35.803Z,32.05
2023-05-25T02:13:51.862Z,33.25
2023-05-25T02:18:17.979Z,31.65
2023-05-25T02:22:43.387Z,31.48
2023-05-25T02:27:30.781Z,33.47
2023-05-25T02:32:02.656Z,40.17
2023-05-25T02:36:28.623Z,33.97
2023-05-25T02:40:53.858Z,33.67
2023-05-25T02:45:17.108Z,28.85
2023-05-25T02:49:39.195Z,33.42
2023-05-25T02:54:01.757Z,39.95
2023-05-25T02:58:27.809Z,29.70
2023-05-25T03:03:05.794Z,40.78
2023-05-25T03:07:29.161Z,45.20
2023-05-25T03:11:51.500Z,38.00
2023-05-25T03:16:16.039Z,39.67
2023-05-25T03:20:38.468Z,31.88
2023-05-25T03:25:00.458Z,47.55
2023-05-25T03:29:22.543Z,39.47
2023-05-25T03:33:44.681Z,98.93
2023-05-25T03:38:07.359Z,32.30
2023-05-25T03:42:38.101Z,33.10
2023-05-25T03:47:04.283Z,33.88
2023-05-25T03:51:28.639Z,30.08
2023-05-25T03:55:54.146Z,27.02
2023-05-25T04:00:17.167Z,24.60
2023-05-25T04:04:42.129Z,21.20
2023-05-25T04:09:07.354Z,22.17
2023-05-25T04:13:29.376Z,18.50
2023-05-25T04:17:51.914Z,15.13
2023-05-25T04:22:14.039Z,20.92
2023-05-25T04:26:39.580Z,17.75
2023-05-25T04:31:01.977Z,14.90
2023-05-25T04:35:43.033Z,14.88
2023-05-25T04:40:14.419Z,15.23
2023-05-25T04:44:38.815Z,13.98
2023-05-25T04:49:01.763Z,15.38
2023-05-25T04:53:24.075Z,11.32
2023-05-25T04:57:47.290Z,12.98
2023-05-25T05:02:09.164Z,14.38
2023-05-25T05:06:33.192Z,12.10
2023-05-25T05:10:55.927Z,15.35
2023-05-25T05:15:19.538Z,21.65
2023-05-25T05:19:44.522Z,15.60
2023-05-25T05:24:07.635Z,21.33
2023-05-25T05:28:30.097Z,12.80
2023-05-25T05:32:53.895Z,24.65
2023-05-25T05:37:18.217Z,19.13
2023-05-25T05:41:44.156Z,13.85
2023-05-25T05:46:06.534Z,19.13
2023-05-25T05:50:28.458Z,16.67
2023-05-25T05:54:50.392Z,18.95
2023-05-25T05:59:12.706Z,16.45
2023-05-25T06:03:34.997Z,17.10
2023-05-25T06:07:57.188Z,13.88
2023-05-25T06:12:19.024Z,16.88
2023-05-25T06:16:41.378Z,14.38
2023-05-25T06:21:03.965Z,15.15
2023-05-25T06:25:25.947Z,17.17
2023-05-25T06:29:47.985Z,14.73
2023-05-25T06:34:09.827Z,10.05
2023-05-25T06:38:32.422Z,15.43
2023-05-25T06:42:55.263Z,16.92
2023-05-25T06:47:38.808Z,12.82
2023-05-25T06:52:00.921Z,11.82
2023-05-25T06:56:23.754Z,10.50
2023-05-25T07:00:46.838Z,11.82
2023-05-25T07:05:09.586Z,10.07
2023-05-25T07:09:31.522Z,10.65
2023-05-25T07:13:53.534Z,10.07
2023-05-25T07:18:16.396Z,11.70
2023-05-25T07:22:38.437Z,12.15
2023-05-25T07:27:02.205Z,13.90
2023-05-25T07:31:24.464Z,8.40
2023-05-25T07:35:47.011Z,11.32
2023-05-25T07:40:09.821Z,9.57
2023-05-25T07:44:31.861Z,10.95
2023-05-25T07:48:54.921Z,13.27
2023-05-25T07:53:16.865Z,11.73
2023-05-25T07:57:38.697Z,7.97
2023-05-25T08:02:00.756Z,12.48
2023-05-25T08:06:23.493Z,11.60
2023-05-25T08:10:45.664Z,12.48
2023-05-25T08:15:08.441Z,9.95
2023-05-25T08:19:33.755Z,8.88
2023-05-25T08:23:56.704Z,9.05
2023-05-25T08:28:18.805Z,7.97
2023-05-25T08:32:40.888Z,13.80
2023-05-25T08:37:02.922Z,12.88
2023-05-25T08:41:25.025Z,11.80
2023-05-25T08:45:47.578Z,10.02
2023-05-25T08:50:11.996Z,12.00
2023-05-25T08:54:38.315Z,10.32
2023-05-25T08:59:15.938Z,9.82
2023-05-25T09:03:38.592Z,9.48
2023-05-25T09:08:01.175Z,10.40
2023-05-25T09:12:24.140Z,11.10
2023-05-25T09:16:47.838Z,10.05
2023-05-25T09:21:10.111Z,11.88
2023-05-25T09:25:33.997Z,10.75
2023-05-25T09:30:00.232Z,11.02
2023-05-25T09:34:22.479Z,16.05
2023-05-25T09:38:45.961Z,11.00
2023-05-25T09:43:08.490Z,11.48
2023-05-25T09:47:30.972Z,10.27
2023-05-25T09:51:53.674Z,13.15
2023-05-25T09:56:17.617Z,8.77
2023-05-25T10:00:39.501Z,10.77
2023-05-25T10:05:01.751Z,13.80
2023-05-25T10:09:26.151Z,10.52
2023-05-25T10:13:50.600Z,10.32
2023-05-25T10:18:16.078Z,9.88
2023-05-25T10:22:55.323Z,10.40
2023-05-25T10:27:27.574Z,11.40
2023-05-25T10:31:51.318Z,9.98
2023-05-25T10:36:14.741Z,7.78
2023-05-25T10:40:38.552Z,9.25
2023-05-25T10:45:00.879Z,10.27
2023-05-25T10:49:52.037Z,10.90
2023-05-25T10:54:15.354Z,8.93
2023-05-25T10:58:46.668Z,9.38
2023-05-25T11:03:10.450Z,10.15
2023-05-25T11:07:32.214Z,10.82
2023-05-25T11:12:03.200Z,10.30
2023-05-25T11:16:30.807Z,10.55
2023-05-25T11:21:22.267Z,9.80
2023-05-25T11:25:44.958Z,14.00
2023-05-25T11:30:08.025Z,16.30
2023-05-25T11:34:34.511Z,14.18
2023-05-25T11:43:26.866Z,13.07
2023-05-25T11:47:49.357Z,11.55
2023-05-25T11:52:14.491Z,14.27
2023-05-25T11:56:37.275Z,14.10
2023-05-25T12:01:23.652Z,10.90
2023-05-25T12:05:46.311Z,16.98
2023-05-25T12:10:13.737Z,14.57
2023-05-25T12:14:41.654Z,12.30
2023-05-25T12:19:04.116Z,12.95
2023-05-25T12:23:26.605Z,16.80
2023-05-25T12:27:48.872Z,15.80
2023-05-25T12:32:10.989Z,14.18
2023-05-25T12:36:54.060Z,17.02
2023-05-25T12:41:16.274Z,12.27
2023-05-25T12:45:43.309Z,12.05
2023-05-25T12:50:14.910Z,16.40
2023-05-25T12:54:43.943Z,14.02
2023-05-25T12:59:15.761Z,13.70
2023-05-25T13:03:37.908Z,14.35
2023-05-25T13:08:00.466Z,10.73
2023-05-25T13:12:22.896Z,11.63
2023-05-25T13:16:46.492Z,15.32
2023-05-25T13:21:09.586Z,16.77
2023-05-25T13:25:31.955Z,14.93
2023-05-25T13:29:53.883Z,13.32
2023-05-25T13:34:16.196Z,17.90
2023-05-25T13:38:38.651Z,15.25
2023-05-25T13:43:00.620Z,15.27
2023-05-25T13:47:22.685Z,14.20
2023-05-25T13:51:44.725Z,14.38
2023-05-25T13:56:07.126Z,19.73
2023-05-25T14:00:29.017Z,16.15
2023-05-25T14:04:50.937Z,17.60
2023-05-25T14:09:13.648Z,15.85
2023-05-25T14:13:36.761Z,13.20
2023-05-25T14:17:59.152Z,10.73
2023-05-25T14:22:21.239Z,15.60
2023-05-25T14:26:43.895Z,15.73
2023-05-25T14:31:06.432Z,14.30
2023-05-25T14:35:28.517Z,13.15
2023-05-25T14:39:50.705Z,16.05
2023-05-25T14:44:12.636Z,14.70
2023-05-25T14:48:34.478Z,15.90
2023-05-25T14:52:56.558Z,14.98
2023-05-25T14:57:19.018Z,13.68
2023-05-25T15:01:41.212Z,15.90
2023-05-25T15:06:03.520Z,14.88
2023-05-25T15:10:25.693Z,15.52
2023-05-25T15:14:48.030Z,13.93
2023-05-25T15:19:12.778Z,14.10
2023-05-25T15:23:36.838Z,13.52
2023-05-25T15:27:58.939Z,14.02
2023-05-25T15:32:21.299Z,17.77
2023-05-25T15:36:43.117Z,13.98
2023-05-25T15:41:05.383Z,14.82
2023-05-25T15:45:27.141Z,15.80
2023-05-25T15:49:49.317Z,15.80
2023-05-25T15:54:14.747Z,16.17
2023-05-25T15:58:37.242Z,17.48
2023-05-25T16:02:59.299Z,18.30
2023-05-25T16:07:21.725Z,18.85
2023-05-25T16:11:43.766Z,11.32
2023-05-25T16:16:06.115Z,17.15
2023-05-25T16:20:28.259Z,13.98
2023-05-25T16:24:50.380Z,17.67
2023-05-25T16:29:12.318Z,15.40
2023-05-25T16:33:34.938Z,16.17
2023-05-25T16:37:57.265Z,13.23
2023-05-25T16:42:20.133Z,17.52
2023-05-25T16:46:42.183Z,18.08
2023-05-25T16:51:04.333Z,14.15
2023-05-25T16:55:26.284Z,16.17
2023-05-25T16:59:48.318Z,16.90
2023-05-25T17:04:10.275Z,19.83
2023-05-25T17:08:32.346Z,17.05
2023-05-25T17:12:54.475Z,14.38
2023-05-25T17:17:16.717Z,14.70
2023-05-25T17:21:38.727Z,17.42
2023-05-25T17:26:00.627Z,18.65
2023-05-25T17:30:22.871Z,14.68
2023-05-25T17:34:55.113Z,15.73
2023-05-25T17:39:17.636Z,16.63
2023-05-25T17:43:39.921Z,15.27
2023-05-25T17:48:02.192Z,16.85
2023-05-25T17:52:24.180Z,16.85
2023-05-25T17:56:46.915Z,20.00
2023-05-25T18:01:08.998Z,12.57
2023-05-25T18:05:31.048Z,23.10
2023-05-25T18:09:52.924Z,12.57
2023-05-25T18:14:15.138Z,22.95
2023-05-25T18:18:37.505Z,19.23
2023-05-25T18:22:59.617Z,15.95
2023-05-25T18:27:21.960Z,18.65
2023-05-25T18:31:47.375Z,20.35
2023-05-25T18:36:09.673Z,17.98
2023-05-25T18:40:31.855Z,20.75
2023-05-25T18:44:54.199Z,12.50
2023-05-25T18:49:16.928Z,17.30
2023-05-25T18:53:39.774Z,31.02
2023-05-25T18:58:01.945Z,18.35
2023-05-25T19:02:24.357Z,21.38
2023-05-25T19:06:46.932Z,40.35
2023-05-25T19:11:08.890Z,26.10
2023-05-25T19:15:30.666Z,23.77
2023-05-25T19:19:52.914Z,20.25
2023-05-25T19:24:15.176Z,18.10
2023-05-25T19:28:37.476Z,31.88
2023-05-25T19:32:59.450Z,21.38
2023-05-25T19:37:21.800Z,25.85
2023-05-25T19:41:43.657Z,17.38
2023-05-25T19:46:07.573Z,24.00
2023-05-25T19:50:31.152Z,23.73
2023-05-25T19:54:52.996Z,18.48
2023-05-25T19:59:15.233Z,20.48
2023-05-25T20:03:37.506Z,26.00
2023-05-25T20:07:59.677Z,18.88
2023-05-25T20:12:22.049Z,19.70
2023-05-25T20:16:45.973Z,20.30
2023-05-25T20:21:08.013Z,20.35
2023-05-25T20:25:30.372Z,23.80
2023-05-25T20:29:52.694Z,22.60
2023-05-25T20:34:14.958Z,23.25
2023-05-25T20:38:36.833Z,20.35
2023-05-25T20:42:59.054Z,19.85
2023-05-25T20:47:21.325Z,23.08
2023-05-25T20:51:50.069Z,21.83
2023-05-25T20:56:12.092Z,24.90
2023-05-25T21:00:34.399Z,24.20
2023-05-25T21:04:56.650Z,26.55
2023-05-25T21:09:18.922Z,22.58
2023-05-25T21:13:41.204Z,24.17
2023-05-25T21:18:03.720Z,25.08
2023-05-25T21:22:25.898Z,26.52
2023-05-25T21:26:47.656Z,22.58
2023-05-25T21:31:10.068Z,26.13
2023-05-25T21:35:32.220Z,21.50
2023-05-25T21:39:54.572Z,24.20
2023-05-25T21:44:16.881Z,26.08
2023-05-25T21:48:38.997Z,22.80
2023-05-25T21:53:00.736Z,38.03
2023-05-25T21:57:22.942Z,29.27
2023-05-25T22:01:44.969Z,28.90
2023-05-25T22:06:07.323Z,23.83
2023-05-25T22:10:29.731Z,25.02
2023-05-25T22:14:51.769Z,24.70
2023-05-25T22:19:13.873Z,24.92
2023-05-25T22:23:36.106Z,26.90
2023-05-25T22:28:01.894Z,23.73
2023-05-25T22:32:33.386Z,23.10
2023-05-25T22:37:16.915Z,22.77
2023-05-25T22:41:42.514Z,25.70
2023-05-25T22:46:04.678Z,28.08
2023-05-25T22:50:26.917Z,22.38
2023-05-25T22:54:49.094Z,27.58
2023-05-25T22:59:12.394Z,20.80
2023-05-25T23:03:34.693Z,20.13
2023-05-25T23:07:58.798Z,21.85
2023-05-25T23:12:21.053Z,20.75
2023-05-25T23:16:45.456Z,19.10
2023-05-25T23:21:07.777Z,22.35
2023-05-25T23:25:29.628Z,19.50
2023-05-25T23:29:51.760Z,17.00
2023-05-25T23:34:13.725Z,19.88
2023-05-25T23:38:36.395Z,20.00
2023-05-25T23:42:58.535Z,19.38
2023-05-25T23:47:20.641Z,27.70
2023-05-25T23:51:42.489Z,20.08
2023-05-25T23:56:14.218Z,24.92
